sensor_id;sensor_type;location;lat;lon;timestamp;temperature;humidity
25108;DHT22;13090;53.422;7.670;2023-12-20T00:00:37;8.30;99.90
25108;DHT22;13090;53.422;7.670;2023-12-20T00:06:18;8.30;99.90
25108;DHT22;13090;53.422;7.670;2023-12-20T00:11:59;8.20;99.90
25108;DHT22;13090;53.422;7.670;2023-12-20T00:17:39;8.10;99.90
25108;DHT22;13090;53.422;7.670;2023-12-20T00:23:21;8.00;99.90
25108;DHT22;13090;53.422;7.670;2023-12-20T00:29:01;8.00;99.90
25108;DHT22;13090;53.422;7.670;2023-12-20T00:34:41;7.90;99.90
25108;DHT22;13090;53.422;7.670;2023-12-20T00:40:22;7.80;99.90
25108;DHT22;13090;53.422;7.670;2023-12-20T00:46:03;7.80;99.90
25108;DHT22;13090;53.422;7.670;2023-12-20T00:51:44;7.70;99.90
25108;DHT22;13090;53.422;7.670;2023-12-20T00:57:25;7.60;99.90
25108;DHT22;13090;53.422;7.670;2023-12-20T01:03:05;7.60;99.90
25108;DHT22;13090;53.422;7.670;2023-12-20T01:08:45;7.50;99.90
25108;DHT22;13090;53.422;7.670;2023-12-20T01:14:27;7.50;99.90
25108;DHT22;13090;53.422;7.670;2023-12-20T01:20:08;7.50;99.90
25108;DHT22;13090;53.422;7.670;2023-12-20T01:25:48;7.60;99.90
25108;DHT22;13090;53.422;7.670;2023-12-20T01:31:30;7.70;99.90
25108;DHT22;13090;53.422;7.670;2023-12-20T01:37:10;7.80;99.90
25108;DHT22;13090;53.422;7.670;2023-12-20T01:42:58;7.80;99.90
25108;DHT22;13090;53.422;7.670;2023-12-20T01:48:40;7.90;99.90
25108;DHT22;13090;53.422;7.670;2023-12-20T01:54:21;8.00;99.90
25108;DHT22;13090;53.422;7.670;2023-12-20T02:00:01;8.10;99.90
25108;DHT22;13090;53.422;7.670;2023-12-20T02:05:43;8.20;99.90
25108;DHT22;13090;53.422;7.670;2023-12-20T02:11:24;8.30;99.90
25108;DHT22;13090;53.422;7.670;2023-12-20T02:17:04;8.40;99.90
25108;DHT22;13090;53.422;7.670;2023-12-20T02:22:46;8.40;99.90
25108;DHT22;13090;53.422;7.670;2023-12-20T02:28:27;8.40;99.90
25108;DHT22;13090;53.422;7.670;2023-12-20T02:34:08;8.40;99.90
25108;DHT22;13090;53.422;7.670;2023-12-20T02:39:49;8.40;99.90
25108;DHT22;13090;53.422;7.670;2023-12-20T02:45:29;8.40;99.90
25108;DHT22;13090;53.422;7.670;2023-12-20T02:51:10;8.40;99.90
25108;DHT22;13090;53.422;7.670;2023-12-20T02:56:51;8.40;99.90
25108;DHT22;13090;53.422;7.670;2023-12-20T03:02:31;8.40;99.90
25108;DHT22;13090;53.422;7.670;2023-12-20T03:08:12;8.40;99.90
25108;DHT22;13090;53.422;7.670;2023-12-20T03:13:53;8.40;99.90
25108;DHT22;13090;53.422;7.670;2023-12-20T03:19:33;8.40;99.90
25108;DHT22;13090;53.422;7.670;2023-12-20T03:25:14;8.40;99.90
25108;DHT22;13090;53.422;7.670;2023-12-20T03:30:55;8.40;99.90
25108;DHT22;13090;53.422;7.670;2023-12-20T03:36:36;8.40;99.90
25108;DHT22;13090;53.422;7.670;2023-12-20T03:42:16;8.40;99.90
25108;DHT22;13090;53.422;7.670;2023-12-20T03:47:58;8.40;99.90
25108;DHT22;13090;53.422;7.670;2023-12-20T03:53:38;8.40;99.90
25108;DHT22;13090;53.422;7.670;2023-12-20T03:59:18;8.40;99.90
25108;DHT22;13090;53.422;7.670;2023-12-20T04:05:00;8.50;99.90
25108;DHT22;13090;53.422;7.670;2023-12-20T04:10:40;8.50;99.90
25108;DHT22;13090;53.422;7.670;2023-12-20T04:16:21;8.50;99.90
25108;DHT22;13090;53.422;7.670;2023-12-20T04:22:03;8.50;99.90
25108;DHT22;13090;53.422;7.670;2023-12-20T04:27:43;8.40;99.90
25108;DHT22;13090;53.422;7.670;2023-12-20T04:33:24;8.40;99.90
25108;DHT22;13090;53.422;7.670;2023-12-20T04:39:05;8.50;99.90
25108;DHT22;13090;53.422;7.670;2023-12-20T04:44:45;8.50;99.90
25108;DHT22;13090;53.422;7.670;2023-12-20T04:50:26;8.50;99.90
25108;DHT22;13090;53.422;7.670;2023-12-20T04:56:08;8.60;99.90
25108;DHT22;13090;53.422;7.670;2023-12-20T05:01:48;8.50;99.90
25108;DHT22;13090;53.422;7.670;2023-12-20T05:07:28;8.50;99.90
25108;DHT22;13090;53.422;7.670;2023-12-20T05:13:10;8.60;99.90
25108;DHT22;13090;53.422;7.670;2023-12-20T05:18:50;8.60;99.90
25108;DHT22;13090;53.422;7.670;2023-12-20T05:24:30;8.70;99.90
25108;DHT22;13090;53.422;7.670;2023-12-20T05:30:13;8.80;99.90
25108;DHT22;13090;53.422;7.670;2023-12-20T05:35:53;8.80;99.90
25108;DHT22;13090;53.422;7.670;2023-12-20T05:41:34;8.90;99.90
25108;DHT22;13090;53.422;7.670;2023-12-20T05:47:15;8.80;99.90
25108;DHT22;13090;53.422;7.670;2023-12-20T05:52:55;8.90;99.90
25108;DHT22;13090;53.422;7.670;2023-12-20T05:58:36;8.90;99.90
25108;DHT22;13090;53.422;7.670;2023-12-20T06:04:18;8.90;99.90
25108;DHT22;13090;53.422;7.670;2023-12-20T06:10:01;8.90;99.90
25108;DHT22;13090;53.422;7.670;2023-12-20T06:15:41;8.90;99.90
25108;DHT22;13090;53.422;7.670;2023-12-20T06:21:23;9.00;99.90
25108;DHT22;13090;53.422;7.670;2023-12-20T06:27:03;9.00;99.90
25108;DHT22;13090;53.422;7.670;2023-12-20T06:32:43;9.00;99.90
25108;DHT22;13090;53.422;7.670;2023-12-20T06:38:25;9.00;99.90
25108;DHT22;13090;53.422;7.670;2023-12-20T06:44:05;9.10;99.90
25108;DHT22;13090;53.422;7.670;2023-12-20T06:49:45;9.10;99.90
25108;DHT22;13090;53.422;7.670;2023-12-20T06:55:27;9.10;99.90
25108;DHT22;13090;53.422;7.670;2023-12-20T07:01:11;9.10;99.90
25108;DHT22;13090;53.422;7.670;2023-12-20T07:06:51;9.20;99.90
25108;DHT22;13090;53.422;7.670;2023-12-20T07:12:34;9.20;99.90
25108;DHT22;13090;53.422;7.670;2023-12-20T07:18:14;9.20;99.90
25108;DHT22;13090;53.422;7.670;2023-12-20T07:23:54;9.20;99.90
25108;DHT22;13090;53.422;7.670;2023-12-20T07:29:36;9.20;99.90
25108;DHT22;13090;53.422;7.670;2023-12-20T07:35:16;9.30;99.90
25108;DHT22;13090;53.422;7.670;2023-12-20T07:40:57;9.30;99.90
25108;DHT22;13090;53.422;7.670;2023-12-20T07:46:40;9.30;99.90
25108;DHT22;13090;53.422;7.670;2023-12-20T07:52:20;9.40;99.90
25108;DHT22;13090;53.422;7.670;2023-12-20T07:58:01;9.40;99.90
25108;DHT22;13090;53.422;7.670;2023-12-20T08:03:42;9.40;99.90
25108;DHT22;13090;53.422;7.670;2023-12-20T08:09:23;9.40;99.90
25108;DHT22;13090;53.422;7.670;2023-12-20T08:15:04;9.50;99.90
25108;DHT22;13090;53.422;7.670;2023-12-20T08:20:46;9.50;99.90
25108;DHT22;13090;53.422;7.670;2023-12-20T08:26:30;9.50;99.90
25108;DHT22;13090;53.422;7.670;2023-12-20T08:32:11;9.60;99.90
25108;DHT22;13090;53.422;7.670;2023-12-20T08:37:54;9.60;99.90
25108;DHT22;13090;53.422;7.670;2023-12-20T08:43:35;9.50;99.90
25108;DHT22;13090;53.422;7.670;2023-12-20T08:49:15;9.30;99.90
25108;DHT22;13090;53.422;7.670;2023-12-20T08:54:57;9.20;99.90
25108;DHT22;13090;53.422;7.670;2023-12-20T09:00:37;9.10;99.90
25108;DHT22;13090;53.422;7.670;2023-12-20T09:06:18;9.00;99.90
25108;DHT22;13090;53.422;7.670;2023-12-20T09:12:00;8.90;99.90
25108;DHT22;13090;53.422;7.670;2023-12-20T09:17:40;8.90;99.90
25108;DHT22;13090;53.422;7.670;2023-12-20T09:23:20;8.80;99.90
25108;DHT22;13090;53.422;7.670;2023-12-20T09:29:02;8.80;99.90
25108;DHT22;13090;53.422;7.670;2023-12-20T09:34:43;8.80;99.90
25108;DHT22;13090;53.422;7.670;2023-12-20T09:40:26;8.80;99.90
25108;DHT22;13090;53.422;7.670;2023-12-20T09:46:11;8.90;99.90
25108;DHT22;13090;53.422;7.670;2023-12-20T09:51:54;8.90;99.90
25108;DHT22;13090;53.422;7.670;2023-12-20T09:57:34;9.00;99.90
25108;DHT22;13090;53.422;7.670;2023-12-20T10:03:16;9.10;99.90
25108;DHT22;13090;53.422;7.670;2023-12-20T10:08:56;9.30;99.90
25108;DHT22;13090;53.422;7.670;2023-12-20T10:14:38;9.40;99.90
25108;DHT22;13090;53.422;7.670;2023-12-20T10:20:20;9.70;99.90
25108;DHT22;13090;53.422;7.670;2023-12-20T10:26:01;10.10;99.90
25108;DHT22;13090;53.422;7.670;2023-12-20T10:31:41;10.60;99.90
25108;DHT22;13090;53.422;7.670;2023-12-20T10:37:23;11.30;99.90
25108;DHT22;13090;53.422;7.670;2023-12-20T10:43:05;11.90;99.90
25108;DHT22;13090;53.422;7.670;2023-12-20T10:48:47;12.40;99.90
25108;DHT22;13090;53.422;7.670;2023-12-20T10:54:30;12.80;99.90
25108;DHT22;13090;53.422;7.670;2023-12-20T11:00:13;13.20;99.90
25108;DHT22;13090;53.422;7.670;2023-12-20T11:05:59;13.40;99.90
25108;DHT22;13090;53.422;7.670;2023-12-20T11:11:55;13.30;99.90
25108;DHT22;13090;53.422;7.670;2023-12-20T11:17:39;13.10;99.80
25108;DHT22;13090;53.422;7.670;2023-12-20T11:23:19;12.80;99.70
25108;DHT22;13090;53.422;7.670;2023-12-20T11:29:32;12.50;98.80
25108;DHT22;13090;53.422;7.670;2023-12-20T11:35:19;11.90;98.00
25108;DHT22;13090;53.422;7.670;2023-12-20T11:41:01;11.50;98.80
25108;DHT22;13090;53.422;7.670;2023-12-20T11:46:45;11.20;99.70
25108;DHT22;13090;53.422;7.670;2023-12-20T11:52:25;11.10;99.70
25108;DHT22;13090;53.422;7.670;2023-12-20T11:58:05;10.90;99.80
25108;DHT22;13090;53.422;7.670;2023-12-20T12:03:47;10.80;99.80
25108;DHT22;13090;53.422;7.670;2023-12-20T12:09:29;10.80;99.90
25108;DHT22;13090;53.422;7.670;2023-12-20T12:15:10;11.20;99.90
25108;DHT22;13090;53.422;7.670;2023-12-20T12:21:00;11.80;99.90
25108;DHT22;13090;53.422;7.670;2023-12-20T12:26:40;12.30;99.90
25108;DHT22;13090;53.422;7.670;2023-12-20T12:32:21;12.70;99.90
25108;DHT22;13090;53.422;7.670;2023-12-20T12:38:03;13.10;99.90
25108;DHT22;13090;53.422;7.670;2023-12-20T12:43:44;13.20;99.30
25108;DHT22;13090;53.422;7.670;2023-12-20T12:49:24;13.10;98.90
25108;DHT22;13090;53.422;7.670;2023-12-20T12:55:07;12.90;99.20
25108;DHT22;13090;53.422;7.670;2023-12-20T13:00:47;12.70;98.60
25108;DHT22;13090;53.422;7.670;2023-12-20T13:06:27;12.40;98.50
25108;DHT22;13090;53.422;7.670;2023-12-20T13:12:10;12.10;98.50
25108;DHT22;13090;53.422;7.670;2023-12-20T13:17:50;11.80;98.70
25108;DHT22;13090;53.422;7.670;2023-12-20T13:23:31;11.60;99.00
25108;DHT22;13090;53.422;7.670;2023-12-20T13:29:12;11.40;99.30
25108;DHT22;13090;53.422;7.670;2023-12-20T13:34:53;11.30;99.30
25108;DHT22;13090;53.422;7.670;2023-12-20T13:40:33;11.20;99.40
25108;DHT22;13090;53.422;7.670;2023-12-20T13:46:15;11.00;99.40
25108;DHT22;13090;53.422;7.670;2023-12-20T13:51:55;10.90;99.30
25108;DHT22;13090;53.422;7.670;2023-12-20T13:57:35;10.80;99.50
25108;DHT22;13090;53.422;7.670;2023-12-20T14:03:35;10.70;99.60
25108;DHT22;13090;53.422;7.670;2023-12-20T14:09:15;10.60;99.50
25108;DHT22;13090;53.422;7.670;2023-12-20T14:14:55;10.60;99.60
25108;DHT22;13090;53.422;7.670;2023-12-20T14:20:37;10.60;99.60
25108;DHT22;13090;53.422;7.670;2023-12-20T14:26:17;10.50;99.60
25108;DHT22;13090;53.422;7.670;2023-12-20T14:31:58;10.50;99.60
25108;DHT22;13090;53.422;7.670;2023-12-20T14:37:39;10.40;99.50
25108;DHT22;13090;53.422;7.670;2023-12-20T14:43:20;10.30;99.40
25108;DHT22;13090;53.422;7.670;2023-12-20T14:49:01;10.30;99.60
25108;DHT22;13090;53.422;7.670;2023-12-20T14:54:42;10.20;99.60
25108;DHT22;13090;53.422;7.670;2023-12-20T15:00:23;10.10;99.60
25108;DHT22;13090;53.422;7.670;2023-12-20T15:06:03;10.00;99.70
25108;DHT22;13090;53.422;7.670;2023-12-20T15:11:45;9.90;99.80
25108;DHT22;13090;53.422;7.670;2023-12-20T15:17:25;9.80;99.90
25108;DHT22;13090;53.422;7.670;2023-12-20T15:23:05;9.70;99.90
25108;DHT22;13090;53.422;7.670;2023-12-20T15:28:49;9.70;99.90
25108;DHT22;13090;53.422;7.670;2023-12-20T15:34:30;9.70;99.90
25108;DHT22;13090;53.422;7.670;2023-12-20T15:40:11;9.60;99.90
25108;DHT22;13090;53.422;7.670;2023-12-20T15:45:53;9.50;99.90
25108;DHT22;13090;53.422;7.670;2023-12-20T15:51:33;9.50;99.90
25108;DHT22;13090;53.422;7.670;2023-12-20T15:57:14;9.40;99.90
25108;DHT22;13090;53.422;7.670;2023-12-20T16:02:55;9.30;99.90
25108;DHT22;13090;53.422;7.670;2023-12-20T16:08:35;9.30;99.90
25108;DHT22;13090;53.422;7.670;2023-12-20T16:14:16;9.20;99.90
25108;DHT22;13090;53.422;7.670;2023-12-20T16:19:57;9.20;99.90
25108;DHT22;13090;53.422;7.670;2023-12-20T16:25:38;9.20;99.90
25108;DHT22;13090;53.422;7.670;2023-12-20T16:31:18;9.20;99.90
25108;DHT22;13090;53.422;7.670;2023-12-20T16:37:00;9.20;99.90
25108;DHT22;13090;53.422;7.670;2023-12-20T16:42:40;9.20;99.90
25108;DHT22;13090;53.422;7.670;2023-12-20T16:48:20;9.10;99.90
25108;DHT22;13090;53.422;7.670;2023-12-20T16:54:02;9.10;99.90
25108;DHT22;13090;53.422;7.670;2023-12-20T16:59:42;9.20;99.90
25108;DHT22;13090;53.422;7.670;2023-12-20T17:05:23;9.20;99.90
25108;DHT22;13090;53.422;7.670;2023-12-20T17:11:05;9.10;99.90
25108;DHT22;13090;53.422;7.670;2023-12-20T17:16:45;9.10;99.90
25108;DHT22;13090;53.422;7.670;2023-12-20T17:22:25;9.10;99.90
25108;DHT22;13090;53.422;7.670;2023-12-20T17:28:09;9.10;99.90
25108;DHT22;13090;53.422;7.670;2023-12-20T17:33:50;9.10;99.90
25108;DHT22;13090;53.422;7.670;2023-12-20T17:39:30;9.10;99.90
25108;DHT22;13090;53.422;7.670;2023-12-20T17:45:12;9.10;99.90
25108;DHT22;13090;53.422;7.670;2023-12-20T17:50:53;9.00;99.90
25108;DHT22;13090;53.422;7.670;2023-12-20T17:56:33;9.00;99.90
25108;DHT22;13090;53.422;7.670;2023-12-20T18:02:15;9.00;99.90
25108;DHT22;13090;53.422;7.670;2023-12-20T18:07:55;9.00;99.90
25108;DHT22;13090;53.422;7.670;2023-12-20T18:13:35;9.00;99.90
25108;DHT22;13090;53.422;7.670;2023-12-20T18:19:17;9.00;99.90
25108;DHT22;13090;53.422;7.670;2023-12-20T18:25:00;9.00;99.90
25108;DHT22;13090;53.422;7.670;2023-12-20T18:30:41;9.00;99.90
25108;DHT22;13090;53.422;7.670;2023-12-20T18:36:24;9.10;99.90
25108;DHT22;13090;53.422;7.670;2023-12-20T18:42:06;9.10;99.90
25108;DHT22;13090;53.422;7.670;2023-12-20T18:47:49;9.10;99.90
25108;DHT22;13090;53.422;7.670;2023-12-20T18:53:41;9.20;99.90
25108;DHT22;13090;53.422;7.670;2023-12-20T18:59:23;9.20;99.90
25108;DHT22;13090;53.422;7.670;2023-12-20T19:05:05;9.20;99.90
25108;DHT22;13090;53.422;7.670;2023-12-20T19:10:52;9.20;99.90
25108;DHT22;13090;53.422;7.670;2023-12-20T19:16:37;9.30;99.90
25108;DHT22;13090;53.422;7.670;2023-12-20T19:22:19;9.40;99.90
25108;DHT22;13090;53.422;7.670;2023-12-20T19:28:05;9.40;99.90
25108;DHT22;13090;53.422;7.670;2023-12-20T19:33:48;9.50;99.90
25108;DHT22;13090;53.422;7.670;2023-12-20T19:39:29;9.60;99.90
25108;DHT22;13090;53.422;7.670;2023-12-20T19:45:13;9.60;99.90
25108;DHT22;13090;53.422;7.670;2023-12-20T19:50:55;9.70;99.90
25108;DHT22;13090;53.422;7.670;2023-12-20T19:56:37;9.80;99.90
25108;DHT22;13090;53.422;7.670;2023-12-20T20:02:19;9.80;99.90
25108;DHT22;13090;53.422;7.670;2023-12-20T20:08:02;9.90;99.90
25108;DHT22;13090;53.422;7.670;2023-12-20T20:13:43;9.90;99.90
25108;DHT22;13090;53.422;7.670;2023-12-20T20:19:25;10.00;99.90
25108;DHT22;13090;53.422;7.670;2023-12-20T20:25:06;10.10;99.90
25108;DHT22;13090;53.422;7.670;2023-12-20T20:30:46;10.20;99.90
25108;DHT22;13090;53.422;7.670;2023-12-20T20:36:28;10.20;99.90
25108;DHT22;13090;53.422;7.670;2023-12-20T20:42:08;10.30;99.90
25108;DHT22;13090;53.422;7.670;2023-12-20T20:47:48;10.40;99.90
25108;DHT22;13090;53.422;7.670;2023-12-20T20:53:37;10.50;99.90
25108;DHT22;13090;53.422;7.670;2023-12-20T20:59:18;10.60;99.90
25108;DHT22;13090;53.422;7.670;2023-12-20T21:04:58;10.70;99.90
25108;DHT22;13090;53.422;7.670;2023-12-20T21:10:41;10.80;99.90
25108;DHT22;13090;53.422;7.670;2023-12-20T21:16:21;10.90;99.90
25108;DHT22;13090;53.422;7.670;2023-12-20T21:22:02;11.00;99.90
25108;DHT22;13090;53.422;7.670;2023-12-20T21:27:44;11.00;99.90
25108;DHT22;13090;53.422;7.670;2023-12-20T21:33:25;11.10;99.90
25108;DHT22;13090;53.422;7.670;2023-12-20T21:39:05;11.20;99.90
25108;DHT22;13090;53.422;7.670;2023-12-20T21:44:49;11.30;99.90
25108;DHT22;13090;53.422;7.670;2023-12-20T21:50:30;11.30;99.90
25108;DHT22;13090;53.422;7.670;2023-12-20T21:56:11;11.40;99.90
25108;DHT22;13090;53.422;7.670;2023-12-20T22:01:52;11.40;99.90
25108;DHT22;13090;53.422;7.670;2023-12-20T22:07:33;11.50;99.90
25108;DHT22;13090;53.422;7.670;2023-12-20T22:13:13;11.50;99.90
25108;DHT22;13090;53.422;7.670;2023-12-20T22:18:56;11.50;99.90
25108;DHT22;13090;53.422;7.670;2023-12-20T22:24:37;11.60;99.90
25108;DHT22;13090;53.422;7.670;2023-12-20T22:30:17;11.60;99.90
25108;DHT22;13090;53.422;7.670;2023-12-20T22:35:59;11.60;99.90
25108;DHT22;13090;53.422;7.670;2023-12-20T22:41:39;11.60;99.90
25108;DHT22;13090;53.422;7.670;2023-12-20T22:47:19;11.60;99.90
25108;DHT22;13090;53.422;7.670;2023-12-20T22:53:00;11.60;99.90
25108;DHT22;13090;53.422;7.670;2023-12-20T22:58:40;11.60;99.90
25108;DHT22;13090;53.422;7.670;2023-12-20T23:04:21;11.60;99.90
25108;DHT22;13090;53.422;7.670;2023-12-20T23:10:03;11.60;99.90
25108;DHT22;13090;53.422;7.670;2023-12-20T23:15:43;11.70;99.90
25108;DHT22;13090;53.422;7.670;2023-12-20T23:21:24;11.70;99.90
25108;DHT22;13090;53.422;7.670;2023-12-20T23:27:05;11.70;99.90
25108;DHT22;13090;53.422;7.670;2023-12-20T23:32:46;11.80;99.90
25108;DHT22;13090;53.422;7.670;2023-12-20T23:38:26;11.80;99.90
25108;DHT22;13090;53.422;7.670;2023-12-20T23:44:08;11.80;99.90
25108;DHT22;13090;53.422;7.670;2023-12-20T23:49:48;11.80;99.90
25108;DHT22;13090;53.422;7.670;2023-12-20T23:55:28;11.80;99.90
